sensor_id;sensor_type;location;lat;lon;timestamp;P1;durP1;ratioP1;P2;durP2;ratioP2
15385;SDS011;7791;47.246;9.648;2023-02-26T00:02:04;16.40;;;6.50;;
15385;SDS011;7791;47.246;9.648;2023-02-26T00:04:31;11.60;;;5.90;;
15385;SDS011;7791;47.246;9.648;2023-02-26T00:06:59;11.23;;;5.47;;
15385;SDS011;7791;47.246;9.648;2023-02-26T00:09:26;10.67;;;5.53;;
15385;SDS011;7791;47.246;9.648;2023-02-26T00:11:52;10.03;;;5.33;;
15385;SDS011;7791;47.246;9.648;2023-02-26T00:14:20;12.27;;;6.00;;
15385;SDS011;7791;47.246;9.648;2023-02-26T00:16:49;9.73;;;5.77;;
15385;SDS011;7791;47.246;9.648;2023-02-26T00:19:20;10.40;;;5.87;;
15385;SDS011;7791;47.246;9.648;2023-02-26T00:21:46;11.83;;;6.73;;
15385;SDS011;7791;47.246;9.648;2023-02-26T00:24:14;12.93;;;6.80;;
15385;SDS011;7791;47.246;9.648;2023-02-26T00:26:44;13.60;;;7.30;;
15385;SDS011;7791;47.246;9.648;2023-02-26T00:29:11;12.03;;;8.20;;
15385;SDS011;7791;47.246;9.648;2023-02-26T00:31:39;18.33;;;8.30;;
15385;SDS011;7791;47.246;9.648;2023-02-26T00:34:09;18.03;;;9.03;;
15385;SDS011;7791;47.246;9.648;2023-02-26T00:36:37;16.40;;;8.90;;
15385;SDS011;7791;47.246;9.648;2023-02-26T00:39:12;16.80;;;9.27;;
15385;SDS011;7791;47.246;9.648;2023-02-26T00:41:47;13.37;;;8.93;;
15385;SDS011;7791;47.246;9.648;2023-02-26T00:44:14;16.20;;;9.27;;
15385;SDS011;7791;47.246;9.648;2023-02-26T00:46:41;18.37;;;8.87;;
15385;SDS011;7791;47.246;9.648;2023-02-26T00:49:17;16.50;;;7.97;;
15385;SDS011;7791;47.246;9.648;2023-02-26T00:51:52;12.27;;;7.90;;
15385;SDS011;7791;47.246;9.648;2023-02-26T00:54:23;13.63;;;7.93;;
15385;SDS011;7791;47.246;9.648;2023-02-26T00:56:55;14.40;;;7.73;;
15385;SDS011;7791;47.246;9.648;2023-02-26T00:59:23;11.53;;;7.03;;
15385;SDS011;7791;47.246;9.648;2023-02-26T01:01:50;12.77;;;6.63;;
15385;SDS011;7791;47.246;9.648;2023-02-26T01:04:18;10.43;;;6.57;;
15385;SDS011;7791;47.246;9.648;2023-02-26T01:06:48;10.97;;;6.27;;
15385;SDS011;7791;47.246;9.648;2023-02-26T01:09:17;8.97;;;5.70;;
15385;SDS011;7791;47.246;9.648;2023-02-26T01:11:50;10.43;;;6.33;;
15385;SDS011;7791;47.246;9.648;2023-02-26T01:14:18;9.63;;;5.90;;
15385;SDS011;7791;47.246;9.648;2023-02-26T01:16:47;8.03;;;5.17;;
15385;SDS011;7791;47.246;9.648;2023-02-26T01:19:19;11.87;;;5.87;;
15385;SDS011;7791;47.246;9.648;2023-02-26T01:21:55;11.03;;;5.70;;
15385;SDS011;7791;47.246;9.648;2023-02-26T01:24:29;11.63;;;6.13;;
15385;SDS011;7791;47.246;9.648;2023-02-26T01:26:57;12.93;;;5.63;;
15385;SDS011;7791;47.246;9.648;2023-02-26T01:29:24;9.17;;;6.33;;
15385;SDS011;7791;47.246;9.648;2023-02-26T01:31:52;11.47;;;6.97;;
15385;SDS011;7791;47.246;9.648;2023-02-26T01:34:22;11.23;;;6.20;;
15385;SDS011;7791;47.246;9.648;2023-02-26T01:36:53;11.23;;;6.00;;
15385;SDS011;7791;47.246;9.648;2023-02-26T01:39:27;9.57;;;5.67;;
15385;SDS011;7791;47.246;9.648;2023-02-26T01:42:04;9.37;;;5.37;;
15385;SDS011;7791;47.246;9.648;2023-02-26T01:44:39;11.50;;;5.77;;
15385;SDS011;7791;47.246;9.648;2023-02-26T01:47:15;10.53;;;6.00;;
15385;SDS011;7791;47.246;9.648;2023-02-26T01:49:47;7.83;;;5.43;;
15385;SDS011;7791;47.246;9.648;2023-02-26T01:55:29;8.97;;;5.53;;
15385;SDS011;7791;47.246;9.648;2023-02-26T01:57:57;11.90;;;5.37;;
15385;SDS011;7791;47.246;9.648;2023-02-26T02:00:27;9.17;;;4.93;;
15385;SDS011;7791;47.246;9.648;2023-02-26T02:02:55;7.93;;;4.70;;
15385;SDS011;7791;47.246;9.648;2023-02-26T02:05:24;7.63;;;5.10;;
15385;SDS011;7791;47.246;9.648;2023-02-26T02:07:52;6.60;;;4.07;;
15385;SDS011;7791;47.246;9.648;2023-02-26T02:10:18;6.17;;;4.23;;
15385;SDS011;7791;47.246;9.648;2023-02-26T02:12:47;7.73;;;4.20;;
15385;SDS011;7791;47.246;9.648;2023-02-26T02:15:24;9.80;;;4.40;;
15385;SDS011;7791;47.246;9.648;2023-02-26T02:18:01;8.47;;;4.23;;
15385;SDS011;7791;47.246;9.648;2023-02-26T02:23:29;7.53;;;4.20;;
15385;SDS011;7791;47.246;9.648;2023-02-26T02:26:23;7.50;;;3.67;;
15385;SDS011;7791;47.246;9.648;2023-02-26T02:32:26;6.37;;;3.90;;
15385;SDS011;7791;47.246;9.648;2023-02-26T02:34:58;5.13;;;3.43;;
15385;SDS011;7791;47.246;9.648;2023-02-26T02:37:31;5.27;;;3.43;;
15385;SDS011;7791;47.246;9.648;2023-02-26T02:40:01;6.23;;;3.57;;
15385;SDS011;7791;47.246;9.648;2023-02-26T02:42:33;5.43;;;3.40;;
15385;SDS011;7791;47.246;9.648;2023-02-26T02:45:06;6.33;;;3.50;;
15385;SDS011;7791;47.246;9.648;2023-02-26T02:47:38;4.90;;;3.03;;
15385;SDS011;7791;47.246;9.648;2023-02-26T02:50:10;8.83;;;4.03;;
15385;SDS011;7791;47.246;9.648;2023-02-26T02:52:41;6.13;;;3.83;;
15385;SDS011;7791;47.246;9.648;2023-02-26T02:55:13;7.83;;;3.90;;
15385;SDS011;7791;47.246;9.648;2023-02-26T02:57:43;7.90;;;4.50;;
15385;SDS011;7791;47.246;9.648;2023-02-26T03:00:14;6.33;;;3.93;;
15385;SDS011;7791;47.246;9.648;2023-02-26T03:02:48;5.70;;;4.13;;
15385;SDS011;7791;47.246;9.648;2023-02-26T03:05:22;7.20;;;4.47;;
15385;SDS011;7791;47.246;9.648;2023-02-26T03:07:49;8.37;;;5.00;;
15385;SDS011;7791;47.246;9.648;2023-02-26T03:10:19;8.23;;;5.20;;
15385;SDS011;7791;47.246;9.648;2023-02-26T03:12:45;8.43;;;5.40;;
15385;SDS011;7791;47.246;9.648;2023-02-26T03:15:11;10.70;;;5.87;;
15385;SDS011;7791;47.246;9.648;2023-02-26T03:17:42;9.53;;;5.60;;
15385;SDS011;7791;47.246;9.648;2023-02-26T03:20:20;8.53;;;5.57;;
15385;SDS011;7791;47.246;9.648;2023-02-26T03:22:52;7.63;;;5.40;;
15385;SDS011;7791;47.246;9.648;2023-02-26T03:25:28;9.20;;;5.83;;
15385;SDS011;7791;47.246;9.648;2023-02-26T03:27:59;8.57;;;5.17;;
15385;SDS011;7791;47.246;9.648;2023-02-26T03:30:32;9.30;;;5.57;;
15385;SDS011;7791;47.246;9.648;2023-02-26T03:33:04;10.73;;;5.67;;
15385;SDS011;7791;47.246;9.648;2023-02-26T03:35:43;7.67;;;5.20;;
15385;SDS011;7791;47.246;9.648;2023-02-26T03:38:14;8.80;;;6.00;;
15385;SDS011;7791;47.246;9.648;2023-02-26T03:40:46;9.57;;;5.20;;
15385;SDS011;7791;47.246;9.648;2023-02-26T03:43:19;8.60;;;5.67;;
15385;SDS011;7791;47.246;9.648;2023-02-26T03:45:50;9.33;;;5.73;;
15385;SDS011;7791;47.246;9.648;2023-02-26T03:48:23;7.93;;;4.93;;
15385;SDS011;7791;47.246;9.648;2023-02-26T03:50:54;8.00;;;5.50;;
15385;SDS011;7791;47.246;9.648;2023-02-26T03:53:25;9.57;;;5.60;;
15385;SDS011;7791;47.246;9.648;2023-02-26T03:55:56;8.90;;;5.70;;
15385;SDS011;7791;47.246;9.648;2023-02-26T03:58:25;9.00;;;5.10;;
15385;SDS011;7791;47.246;9.648;2023-02-26T04:00:53;7.00;;;5.27;;
15385;SDS011;7791;47.246;9.648;2023-02-26T04:03:25;7.80;;;5.20;;
15385;SDS011;7791;47.246;9.648;2023-02-26T04:05:57;7.37;;;5.10;;
15385;SDS011;7791;47.246;9.648;2023-02-26T04:08:25;8.83;;;4.90;;
15385;SDS011;7791;47.246;9.648;2023-02-26T04:10:53;8.07;;;4.83;;
15385;SDS011;7791;47.246;9.648;2023-02-26T04:13:22;7.27;;;5.00;;
15385;SDS011;7791;47.246;9.648;2023-02-26T04:15:49;7.90;;;5.07;;
15385;SDS011;7791;47.246;9.648;2023-02-26T04:18:19;9.07;;;5.40;;
15385;SDS011;7791;47.246;9.648;2023-02-26T04:20:48;7.70;;;4.80;;
15385;SDS011;7791;47.246;9.648;2023-02-26T04:23:14;8.73;;;4.93;;
15385;SDS011;7791;47.246;9.648;2023-02-26T04:25:40;7.93;;;4.77;;
15385;SDS011;7791;47.246;9.648;2023-02-26T04:28:10;6.13;;;4.70;;
15385;SDS011;7791;47.246;9.648;2023-02-26T04:30:37;6.67;;;4.50;;
15385;SDS011;7791;47.246;9.648;2023-02-26T04:33:05;7.20;;;4.43;;
15385;SDS011;7791;47.246;9.648;2023-02-26T04:35:30;6.87;;;4.40;;
15385;SDS011;7791;47.246;9.648;2023-02-26T04:37:58;7.20;;;4.27;;
15385;SDS011;7791;47.246;9.648;2023-02-26T04:40:23;6.50;;;4.13;;
15385;SDS011;7791;47.246;9.648;2023-02-26T04:42:50;7.03;;;4.20;;
15385;SDS011;7791;47.246;9.648;2023-02-26T04:45:16;4.77;;;3.67;;
15385;SDS011;7791;47.246;9.648;2023-02-26T04:47:42;5.70;;;3.80;;
15385;SDS011;7791;47.246;9.648;2023-02-26T04:50:08;5.20;;;3.80;;
15385;SDS011;7791;47.246;9.648;2023-02-26T04:52:35;6.37;;;3.80;;
15385;SDS011;7791;47.246;9.648;2023-02-26T04:55:03;7.13;;;4.23;;
15385;SDS011;7791;47.246;9.648;2023-02-26T04:57:30;10.30;;;3.93;;
15385;SDS011;7791;47.246;9.648;2023-02-26T04:59:57;5.30;;;3.83;;
15385;SDS011;7791;47.246;9.648;2023-02-26T05:02:23;4.37;;;3.63;;
15385;SDS011;7791;47.246;9.648;2023-02-26T05:04:49;5.10;;;3.63;;
15385;SDS011;7791;47.246;9.648;2023-02-26T05:07:15;8.00;;;4.13;;
15385;SDS011;7791;47.246;9.648;2023-02-26T05:09:41;5.73;;;3.77;;
15385;SDS011;7791;47.246;9.648;2023-02-26T05:12:09;7.00;;;3.90;;
15385;SDS011;7791;47.246;9.648;2023-02-26T05:14:35;5.73;;;3.87;;
15385;SDS011;7791;47.246;9.648;2023-02-26T05:17:01;4.70;;;3.70;;
15385;SDS011;7791;47.246;9.648;2023-02-26T05:19:27;4.23;;;3.20;;
15385;SDS011;7791;47.246;9.648;2023-02-26T05:21:53;8.90;;;4.10;;
15385;SDS011;7791;47.246;9.648;2023-02-26T05:24:19;5.27;;;3.60;;
15385;SDS011;7791;47.246;9.648;2023-02-26T05:26:45;4.17;;;3.30;;
15385;SDS011;7791;47.246;9.648;2023-02-26T05:29:15;6.50;;;3.50;;
15385;SDS011;7791;47.246;9.648;2023-02-26T05:31:40;4.63;;;3.43;;
15385;SDS011;7791;47.246;9.648;2023-02-26T05:34:07;4.73;;;3.50;;
15385;SDS011;7791;47.246;9.648;2023-02-26T05:36:34;6.33;;;3.87;;
15385;SDS011;7791;47.246;9.648;2023-02-26T05:39:00;6.57;;;3.67;;
15385;SDS011;7791;47.246;9.648;2023-02-26T05:41:27;5.03;;;3.70;;
15385;SDS011;7791;47.246;9.648;2023-02-26T05:43:53;5.10;;;3.70;;
15385;SDS011;7791;47.246;9.648;2023-02-26T05:46:20;6.87;;;3.77;;
15385;SDS011;7791;47.246;9.648;2023-02-26T05:48:46;6.13;;;3.63;;
15385;SDS011;7791;47.246;9.648;2023-02-26T05:51:13;5.63;;;3.67;;
15385;SDS011;7791;47.246;9.648;2023-02-26T05:56:25;5.90;;;3.47;;
15385;SDS011;7791;47.246;9.648;2023-02-26T05:58:51;4.67;;;3.50;;
15385;SDS011;7791;47.246;9.648;2023-02-26T06:01:17;6.57;;;3.70;;
15385;SDS011;7791;47.246;9.648;2023-02-26T06:03:44;5.23;;;3.47;;
15385;SDS011;7791;47.246;9.648;2023-02-26T06:06:10;7.63;;;3.93;;
15385;SDS011;7791;47.246;9.648;2023-02-26T06:08:37;7.27;;;4.03;;
15385;SDS011;7791;47.246;9.648;2023-02-26T06:11:04;5.87;;;3.20;;
15385;SDS011;7791;47.246;9.648;2023-02-26T06:13:30;6.07;;;3.47;;
15385;SDS011;7791;47.246;9.648;2023-02-26T06:15:57;5.90;;;3.40;;
15385;SDS011;7791;47.246;9.648;2023-02-26T06:18:23;5.30;;;3.43;;
15385;SDS011;7791;47.246;9.648;2023-02-26T06:20:50;6.73;;;3.57;;
15385;SDS011;7791;47.246;9.648;2023-02-26T06:23:17;5.10;;;3.50;;
15385;SDS011;7791;47.246;9.648;2023-02-26T06:25:42;6.83;;;3.10;;
15385;SDS011;7791;47.246;9.648;2023-02-26T06:28:09;5.33;;;3.40;;
15385;SDS011;7791;47.246;9.648;2023-02-26T06:30:35;7.43;;;3.50;;
15385;SDS011;7791;47.246;9.648;2023-02-26T06:33:02;4.57;;;3.00;;
15385;SDS011;7791;47.246;9.648;2023-02-26T06:35:32;5.83;;;3.40;;
15385;SDS011;7791;47.246;9.648;2023-02-26T06:37:59;5.10;;;3.30;;
15385;SDS011;7791;47.246;9.648;2023-02-26T06:40:35;5.03;;;3.30;;
15385;SDS011;7791;47.246;9.648;2023-02-26T06:43:01;8.00;;;3.60;;
15385;SDS011;7791;47.246;9.648;2023-02-26T06:45:28;6.13;;;3.23;;
15385;SDS011;7791;47.246;9.648;2023-02-26T06:48:01;5.80;;;3.30;;
15385;SDS011;7791;47.246;9.648;2023-02-26T06:50:28;6.63;;;3.47;;
15385;SDS011;7791;47.246;9.648;2023-02-26T06:52:55;5.47;;;3.53;;
15385;SDS011;7791;47.246;9.648;2023-02-26T06:58:12;5.57;;;3.53;;
15385;SDS011;7791;47.246;9.648;2023-02-26T07:00:43;6.93;;;2.97;;
15385;SDS011;7791;47.246;9.648;2023-02-26T07:03:11;5.90;;;3.53;;
15385;SDS011;7791;47.246;9.648;2023-02-26T07:05:39;5.07;;;3.63;;
15385;SDS011;7791;47.246;9.648;2023-02-26T07:08:05;6.83;;;3.50;;
15385;SDS011;7791;47.246;9.648;2023-02-26T07:10:31;4.13;;;2.97;;
15385;SDS011;7791;47.246;9.648;2023-02-26T07:12:59;5.57;;;3.43;;
15385;SDS011;7791;47.246;9.648;2023-02-26T07:15:25;7.73;;;3.70;;
15385;SDS011;7791;47.246;9.648;2023-02-26T07:17:51;5.27;;;3.43;;
15385;SDS011;7791;47.246;9.648;2023-02-26T07:20:17;6.53;;;3.73;;
15385;SDS011;7791;47.246;9.648;2023-02-26T07:22:43;4.97;;;2.90;;
15385;SDS011;7791;47.246;9.648;2023-02-26T07:25:09;5.27;;;3.23;;
15385;SDS011;7791;47.246;9.648;2023-02-26T07:27:36;5.93;;;3.50;;
15385;SDS011;7791;47.246;9.648;2023-02-26T07:30:04;5.63;;;3.67;;
15385;SDS011;7791;47.246;9.648;2023-02-26T07:32:31;6.53;;;3.83;;
15385;SDS011;7791;47.246;9.648;2023-02-26T07:34:56;6.17;;;3.50;;
15385;SDS011;7791;47.246;9.648;2023-02-26T07:37:22;5.80;;;3.23;;
15385;SDS011;7791;47.246;9.648;2023-02-26T07:39:50;5.77;;;3.33;;
15385;SDS011;7791;47.246;9.648;2023-02-26T07:42:15;7.23;;;3.40;;
15385;SDS011;7791;47.246;9.648;2023-02-26T07:44:41;5.93;;;3.00;;
15385;SDS011;7791;47.246;9.648;2023-02-26T07:47:09;3.93;;;3.10;;
15385;SDS011;7791;47.246;9.648;2023-02-26T07:49:35;6.83;;;3.50;;
15385;SDS011;7791;47.246;9.648;2023-02-26T07:52:01;6.53;;;3.97;;
15385;SDS011;7791;47.246;9.648;2023-02-26T07:54:27;6.13;;;2.93;;
15385;SDS011;7791;47.246;9.648;2023-02-26T07:56:52;3.97;;;2.40;;
15385;SDS011;7791;47.246;9.648;2023-02-26T07:59:18;5.10;;;2.70;;
15385;SDS011;7791;47.246;9.648;2023-02-26T08:01:44;4.70;;;2.30;;
15385;SDS011;7791;47.246;9.648;2023-02-26T08:04:11;5.40;;;2.50;;
15385;SDS011;7791;47.246;9.648;2023-02-26T08:06:37;3.67;;;2.40;;
15385;SDS011;7791;47.246;9.648;2023-02-26T08:09:03;6.90;;;2.40;;
15385;SDS011;7791;47.246;9.648;2023-02-26T08:11:29;5.60;;;2.57;;
15385;SDS011;7791;47.246;9.648;2023-02-26T08:13:54;4.57;;;2.50;;
15385;SDS011;7791;47.246;9.648;2023-02-26T08:16:20;5.37;;;2.20;;
15385;SDS011;7791;47.246;9.648;2023-02-26T08:18:46;6.23;;;2.37;;
15385;SDS011;7791;47.246;9.648;2023-02-26T08:21:13;5.87;;;3.27;;
15385;SDS011;7791;47.246;9.648;2023-02-26T08:23:39;5.03;;;2.77;;
15385;SDS011;7791;47.246;9.648;2023-02-26T08:26:05;5.33;;;2.30;;
15385;SDS011;7791;47.246;9.648;2023-02-26T08:28:32;4.27;;;1.97;;
15385;SDS011;7791;47.246;9.648;2023-02-26T08:30:58;4.97;;;2.73;;
15385;SDS011;7791;47.246;9.648;2023-02-26T08:33:25;6.13;;;3.17;;
15385;SDS011;7791;47.246;9.648;2023-02-26T08:35:51;3.80;;;2.60;;
15385;SDS011;7791;47.246;9.648;2023-02-26T08:38:18;6.30;;;2.57;;
15385;SDS011;7791;47.246;9.648;2023-02-26T08:40:44;5.93;;;2.30;;
15385;SDS011;7791;47.246;9.648;2023-02-26T08:43:12;6.10;;;2.30;;
15385;SDS011;7791;47.246;9.648;2023-02-26T08:45:38;5.03;;;2.30;;
15385;SDS011;7791;47.246;9.648;2023-02-26T08:48:04;6.10;;;2.47;;
15385;SDS011;7791;47.246;9.648;2023-02-26T08:50:30;4.07;;;2.50;;
15385;SDS011;7791;47.246;9.648;2023-02-26T08:55:51;4.73;;;2.90;;
15385;SDS011;7791;47.246;9.648;2023-02-26T08:58:17;3.70;;;2.60;;
15385;SDS011;7791;47.246;9.648;2023-02-26T09:00:44;4.73;;;2.37;;
15385;SDS011;7791;47.246;9.648;2023-02-26T09:03:10;6.67;;;2.30;;
15385;SDS011;7791;47.246;9.648;2023-02-26T09:05:36;4.77;;;2.50;;
15385;SDS011;7791;47.246;9.648;2023-02-26T09:14:10;5.63;;;2.90;;
15385;SDS011;7791;47.246;9.648;2023-02-26T09:16:35;6.47;;;2.87;;
15385;SDS011;7791;47.246;9.648;2023-02-26T09:19:01;5.77;;;2.73;;
15385;SDS011;7791;47.246;9.648;2023-02-26T09:21:28;4.63;;;3.00;;
15385;SDS011;7791;47.246;9.648;2023-02-26T09:26:57;3.83;;;2.57;;
15385;SDS011;7791;47.246;9.648;2023-02-26T09:29:24;5.53;;;2.90;;
15385;SDS011;7791;47.246;9.648;2023-02-26T09:31:50;7.60;;;2.77;;
15385;SDS011;7791;47.246;9.648;2023-02-26T09:34:16;5.20;;;2.70;;
15385;SDS011;7791;47.246;9.648;2023-02-26T09:36:41;6.03;;;3.23;;
15385;SDS011;7791;47.246;9.648;2023-02-26T09:42:09;7.27;;;3.13;;
15385;SDS011;7791;47.246;9.648;2023-02-26T09:44:45;7.20;;;3.37;;
15385;SDS011;7791;47.246;9.648;2023-02-26T09:47:12;3.80;;;2.90;;
15385;SDS011;7791;47.246;9.648;2023-02-26T09:49:45;5.70;;;3.20;;
15385;SDS011;7791;47.246;9.648;2023-02-26T09:52:16;7.47;;;3.47;;
15385;SDS011;7791;47.246;9.648;2023-02-26T09:55:02;4.63;;;2.80;;
15385;SDS011;7791;47.246;9.648;2023-02-26T09:57:34;7.40;;;3.80;;
15385;SDS011;7791;47.246;9.648;2023-02-26T10:00:17;8.40;;;3.27;;
15385;SDS011;7791;47.246;9.648;2023-02-26T10:02:49;4.20;;;2.90;;
15385;SDS011;7791;47.246;9.648;2023-02-26T10:05:24;3.73;;;2.73;;
15385;SDS011;7791;47.246;9.648;2023-02-26T10:07:57;4.50;;;2.47;;
15385;SDS011;7791;47.246;9.648;2023-02-26T10:10:47;5.93;;;2.50;;
15385;SDS011;7791;47.246;9.648;2023-02-26T10:13:20;6.10;;;2.87;;
15385;SDS011;7791;47.246;9.648;2023-02-26T10:15:53;8.73;;;3.60;;
15385;SDS011;7791;47.246;9.648;2023-02-26T10:18:22;4.50;;;2.83;;
15385;SDS011;7791;47.246;9.648;2023-02-26T10:20:52;4.73;;;2.60;;
15385;SDS011;7791;47.246;9.648;2023-02-26T10:23:22;5.13;;;3.00;;
15385;SDS011;7791;47.246;9.648;2023-02-26T10:28:56;4.73;;;2.60;;
15385;SDS011;7791;47.246;9.648;2023-02-26T10:31:34;4.27;;;2.50;;
15385;SDS011;7791;47.246;9.648;2023-02-26T10:34:09;3.93;;;2.33;;
15385;SDS011;7791;47.246;9.648;2023-02-26T10:36:44;4.13;;;2.40;;
15385;SDS011;7791;47.246;9.648;2023-02-26T10:48:11;4.77;;;2.13;;
15385;SDS011;7791;47.246;9.648;2023-02-26T10:50:49;3.60;;;2.30;;
15385;SDS011;7791;47.246;9.648;2023-02-26T10:53:17;4.67;;;1.90;;
15385;SDS011;7791;47.246;9.648;2023-02-26T10:58:46;2.67;;;1.93;;
15385;SDS011;7791;47.246;9.648;2023-02-26T11:01:13;5.20;;;2.20;;
15385;SDS011;7791;47.246;9.648;2023-02-26T11:03:44;2.57;;;1.90;;
15385;SDS011;7791;47.246;9.648;2023-02-26T11:06:16;3.50;;;1.83;;
15385;SDS011;7791;47.246;9.648;2023-02-26T11:08:45;2.60;;;1.90;;
15385;SDS011;7791;47.246;9.648;2023-02-26T11:14:01;4.17;;;2.33;;
15385;SDS011;7791;47.246;9.648;2023-02-26T11:16:27;3.57;;;2.17;;
15385;SDS011;7791;47.246;9.648;2023-02-26T11:18:55;4.63;;;2.20;;
15385;SDS011;7791;47.246;9.648;2023-02-26T11:21:25;4.53;;;1.90;;
15385;SDS011;7791;47.246;9.648;2023-02-26T11:23:54;3.23;;;1.70;;
15385;SDS011;7791;47.246;9.648;2023-02-26T11:26:24;4.33;;;2.10;;
15385;SDS011;7791;47.246;9.648;2023-02-26T11:28:53;3.93;;;2.13;;
15385;SDS011;7791;47.246;9.648;2023-02-26T11:31:20;3.90;;;2.00;;
15385;SDS011;7791;47.246;9.648;2023-02-26T11:33:48;3.03;;;1.97;;
15385;SDS011;7791;47.246;9.648;2023-02-26T11:36:16;4.03;;;2.17;;
15385;SDS011;7791;47.246;9.648;2023-02-26T11:38:44;3.73;;;1.77;;
15385;SDS011;7791;47.246;9.648;2023-02-26T11:44:06;3.50;;;2.00;;
15385;SDS011;7791;47.246;9.648;2023-02-26T11:46:37;4.07;;;2.00;;
15385;SDS011;7791;47.246;9.648;2023-02-26T11:49:07;3.93;;;2.10;;
15385;SDS011;7791;47.246;9.648;2023-02-26T11:51:37;3.70;;;1.60;;
15385;SDS011;7791;47.246;9.648;2023-02-26T11:54:10;3.80;;;1.47;;
15385;SDS011;7791;47.246;9.648;2023-02-26T11:56:45;4.07;;;1.70;;
15385;SDS011;7791;47.246;9.648;2023-02-26T11:59:15;4.17;;;1.87;;
15385;SDS011;7791;47.246;9.648;2023-02-26T12:01:42;2.07;;;1.80;;
15385;SDS011;7791;47.246;9.648;2023-02-26T12:04:08;3.13;;;1.70;;
15385;SDS011;7791;47.246;9.648;2023-02-26T12:06:37;3.17;;;1.50;;
15385;SDS011;7791;47.246;9.648;2023-02-26T12:09:04;2.27;;;1.40;;
15385;SDS011;7791;47.246;9.648;2023-02-26T12:17:22;2.63;;;1.53;;
15385;SDS011;7791;47.246;9.648;2023-02-26T12:19:56;2.77;;;1.50;;
15385;SDS011;7791;47.246;9.648;2023-02-26T12:22:35;2.70;;;1.60;;
15385;SDS011;7791;47.246;9.648;2023-02-26T12:28:12;4.27;;;1.60;;
15385;SDS011;7791;47.246;9.648;2023-02-26T12:31:09;2.57;;;1.53;;
15385;SDS011;7791;47.246;9.648;2023-02-26T12:33:54;2.57;;;1.50;;
15385;SDS011;7791;47.246;9.648;2023-02-26T12:36:35;2.50;;;1.70;;
15385;SDS011;7791;47.246;9.648;2023-02-26T12:39:14;2.10;;;1.40;;
15385;SDS011;7791;47.246;9.648;2023-02-26T12:41:55;2.40;;;1.60;;
15385;SDS011;7791;47.246;9.648;2023-02-26T12:44:37;4.00;;;1.80;;
15385;SDS011;7791;47.246;9.648;2023-02-26T12:47:34;3.17;;;1.50;;
15385;SDS011;7791;47.246;9.648;2023-02-26T12:50:11;2.73;;;1.60;;
15385;SDS011;7791;47.246;9.648;2023-02-26T12:52:49;2.47;;;1.47;;
15385;SDS011;7791;47.246;9.648;2023-02-26T12:55:41;2.87;;;1.80;;
15385;SDS011;7791;47.246;9.648;2023-02-26T12:58:29;1.87;;;1.50;;
15385;SDS011;7791;47.246;9.648;2023-02-26T13:01:19;1.80;;;1.10;;
15385;SDS011;7791;47.246;9.648;2023-02-26T13:04:02;2.23;;;1.47;;
15385;SDS011;7791;47.246;9.648;2023-02-26T13:07:04;3.37;;;1.77;;
15385;SDS011;7791;47.246;9.648;2023-02-26T13:09:54;2.17;;;1.70;;
15385;SDS011;7791;47.246;9.648;2023-02-26T13:12:32;2.83;;;1.60;;
15385;SDS011;7791;47.246;9.648;2023-02-26T13:15:13;1.83;;;1.43;;
15385;SDS011;7791;47.246;9.648;2023-02-26T13:17:56;2.00;;;1.40;;
15385;SDS011;7791;47.246;9.648;2023-02-26T13:20:27;2.40;;;1.70;;
15385;SDS011;7791;47.246;9.648;2023-02-26T13:22:54;2.87;;;1.87;;
15385;SDS011;7791;47.246;9.648;2023-02-26T13:25:26;2.10;;;1.60;;
15385;SDS011;7791;47.246;9.648;2023-02-26T13:28:00;4.37;;;1.87;;
15385;SDS011;7791;47.246;9.648;2023-02-26T13:30:35;3.43;;;1.40;;
15385;SDS011;7791;47.246;9.648;2023-02-26T13:33:06;2.10;;;1.60;;
15385;SDS011;7791;47.246;9.648;2023-02-26T13:35:41;3.23;;;1.40;;
15385;SDS011;7791;47.246;9.648;2023-02-26T13:38:12;3.37;;;1.67;;
15385;SDS011;7791;47.246;9.648;2023-02-26T13:40:49;2.70;;;1.50;;
15385;SDS011;7791;47.246;9.648;2023-02-26T13:43:31;2.23;;;1.30;;
15385;SDS011;7791;47.246;9.648;2023-02-26T13:46:11;2.57;;;1.37;;
15385;SDS011;7791;47.246;9.648;2023-02-26T13:48:47;1.87;;;1.23;;
15385;SDS011;7791;47.246;9.648;2023-02-26T13:51:26;2.23;;;1.10;;
15385;SDS011;7791;47.246;9.648;2023-02-26T13:53:57;1.43;;;1.00;;
15385;SDS011;7791;47.246;9.648;2023-02-26T13:59:36;2.20;;;1.40;;
15385;SDS011;7791;47.246;9.648;2023-02-26T14:02:34;3.23;;;1.37;;
15385;SDS011;7791;47.246;9.648;2023-02-26T14:05:09;1.90;;;1.53;;
15385;SDS011;7791;47.246;9.648;2023-02-26T14:08:17;4.33;;;1.50;;
15385;SDS011;7791;47.246;9.648;2023-02-26T14:10:55;4.03;;;1.40;;
15385;SDS011;7791;47.246;9.648;2023-02-26T14:13:23;2.67;;;1.37;;
15385;SDS011;7791;47.246;9.648;2023-02-26T14:15:59;2.07;;;1.60;;
15385;SDS011;7791;47.246;9.648;2023-02-26T14:18:36;1.90;;;1.30;;
15385;SDS011;7791;47.246;9.648;2023-02-26T14:24:00;2.40;;;1.43;;
15385;SDS011;7791;47.246;9.648;2023-02-26T14:26:31;1.60;;;1.30;;
15385;SDS011;7791;47.246;9.648;2023-02-26T14:32:11;2.23;;;1.33;;
15385;SDS011;7791;47.246;9.648;2023-02-26T14:34:42;4.10;;;1.43;;
15385;SDS011;7791;47.246;9.648;2023-02-26T14:37:14;1.47;;;1.27;;
15385;SDS011;7791;47.246;9.648;2023-02-26T14:39:44;2.83;;;1.43;;
15385;SDS011;7791;47.246;9.648;2023-02-26T14:42:13;2.37;;;1.43;;
15385;SDS011;7791;47.246;9.648;2023-02-26T14:44:47;2.30;;;1.60;;
15385;SDS011;7791;47.246;9.648;2023-02-26T14:47:18;3.67;;;1.30;;
15385;SDS011;7791;47.246;9.648;2023-02-26T14:49:47;2.53;;;1.50;;
15385;SDS011;7791;47.246;9.648;2023-02-26T14:52:22;1.63;;;1.30;;
15385;SDS011;7791;47.246;9.648;2023-02-26T14:55:17;1.87;;;1.27;;
15385;SDS011;7791;47.246;9.648;2023-02-26T14:58:02;2.87;;;1.47;;
15385;SDS011;7791;47.246;9.648;2023-02-26T15:00:39;2.10;;;1.47;;
15385;SDS011;7791;47.246;9.648;2023-02-26T15:03:19;3.83;;;1.97;;
15385;SDS011;7791;47.246;9.648;2023-02-26T15:05:59;3.10;;;1.30;;
15385;SDS011;7791;47.246;9.648;2023-02-26T15:08:46;2.93;;;1.50;;
15385;SDS011;7791;47.246;9.648;2023-02-26T15:11:22;1.83;;;1.40;;
15385;SDS011;7791;47.246;9.648;2023-02-26T15:17:07;1.97;;;1.37;;
15385;SDS011;7791;47.246;9.648;2023-02-26T15:19:49;2.93;;;1.60;;
15385;SDS011;7791;47.246;9.648;2023-02-26T15:22:28;2.50;;;1.50;;
15385;SDS011;7791;47.246;9.648;2023-02-26T15:25:16;3.67;;;1.87;;
15385;SDS011;7791;47.246;9.648;2023-02-26T15:27:58;3.93;;;2.07;;
15385;SDS011;7791;47.246;9.648;2023-02-26T15:30:25;2.93;;;1.40;;
15385;SDS011;7791;47.246;9.648;2023-02-26T15:32:55;2.70;;;1.60;;
15385;SDS011;7791;47.246;9.648;2023-02-26T15:35:26;2.07;;;1.63;;
15385;SDS011;7791;47.246;9.648;2023-02-26T15:37:53;1.77;;;1.20;;
15385;SDS011;7791;47.246;9.648;2023-02-26T15:40:20;1.10;;;1.00;;
15385;SDS011;7791;47.246;9.648;2023-02-26T15:42:47;2.00;;;1.20;;
15385;SDS011;7791;47.246;9.648;2023-02-26T15:45:17;2.20;;;1.37;;
15385;SDS011;7791;47.246;9.648;2023-02-26T15:47:47;2.00;;;1.40;;
15385;SDS011;7791;47.246;9.648;2023-02-26T15:50:17;2.83;;;1.80;;
15385;SDS011;7791;47.246;9.648;2023-02-26T15:52:47;4.43;;;1.47;;
15385;SDS011;7791;47.246;9.648;2023-02-26T15:55:18;2.87;;;1.50;;
15385;SDS011;7791;47.246;9.648;2023-02-26T15:57:44;1.30;;;1.00;;
15385;SDS011;7791;47.246;9.648;2023-02-26T16:00:28;1.40;;;1.00;;
15385;SDS011;7791;47.246;9.648;2023-02-26T16:02:57;2.80;;;1.63;;
15385;SDS011;7791;47.246;9.648;2023-02-26T16:05:24;4.10;;;2.27;;
15385;SDS011;7791;47.246;9.648;2023-02-26T16:07:51;2.90;;;1.47;;
15385;SDS011;7791;47.246;9.648;2023-02-26T16:10:27;3.03;;;1.43;;
15385;SDS011;7791;47.246;9.648;2023-02-26T16:12:56;1.93;;;1.50;;
15385;SDS011;7791;47.246;9.648;2023-02-26T16:18:17;2.00;;;1.70;;
15385;SDS011;7791;47.246;9.648;2023-02-26T16:20:49;2.30;;;1.57;;
15385;SDS011;7791;47.246;9.648;2023-02-26T16:23:20;2.40;;;1.80;;
15385;SDS011;7791;47.246;9.648;2023-02-26T16:25:49;5.73;;;2.50;;
15385;SDS011;7791;47.246;9.648;2023-02-26T16:28:18;2.07;;;1.77;;
15385;SDS011;7791;47.246;9.648;2023-02-26T16:30:46;3.17;;;1.97;;
15385;SDS011;7791;47.246;9.648;2023-02-26T16:33:16;2.87;;;2.17;;
15385;SDS011;7791;47.246;9.648;2023-02-26T16:35:43;2.87;;;2.00;;
15385;SDS011;7791;47.246;9.648;2023-02-26T16:38:14;4.87;;;2.20;;